createdAt,value
2024-01-26T00:00:59.787Z,76.60
2024-01-26T00:01:59.695Z,77.00
2024-01-26T00:02:59.816Z,76.90
2024-01-26T00:03:59.850Z,76.90
2024-01-26T00:04:59.715Z,77.31
2024-01-26T00:05:59.779Z,77.20
2024-01-26T00:06:59.882Z,77.00
2024-01-26T00:07:59.560Z,76.90
2024-01-26T00:08:59.571Z,76.50
2024-01-26T00:09:59.736Z,76.60
2024-01-26T00:10:59.584Z,76.50
2024-01-26T00:11:59.682Z,76.50
2024-01-26T00:12:59.580Z,76.50
2024-01-26T00:13:59.476Z,76.70
2024-01-26T00:14:59.503Z,76.50
2024-01-26T00:15:59.645Z,77.11
2024-01-26T00:16:59.519Z,77.11
2024-01-26T00:17:59.569Z,77.11
2024-01-26T00:18:59.461Z,76.80
2024-01-26T00:19:59.429Z,77.11
2024-01-26T00:20:59.440Z,77.50
2024-01-26T00:21:59.501Z,77.44
2024-01-26T00:22:59.387Z,77.64
2024-01-26T00:23:59.766Z,77.64
2024-01-26T00:24:59.424Z,77.84
2024-01-26T00:25:59.389Z,78.15
2024-01-26T00:26:59.389Z,78.55
2024-01-26T00:28:00.281Z,78.45
2024-01-26T00:28:59.306Z,78.55
2024-01-26T00:29:59.523Z,78.85
2024-01-26T00:30:59.387Z,78.96
2024-01-26T00:31:59.288Z,79.16
2024-01-26T00:32:59.487Z,79.46
2024-01-26T00:33:59.380Z,79.46
2024-01-26T00:35:00.507Z,79.56
2024-01-26T00:35:59.543Z,79.76
2024-01-26T00:36:59.417Z,79.86
2024-01-26T00:37:59.241Z,80.06
2024-01-26T00:38:59.347Z,79.86
2024-01-26T00:39:59.327Z,80.10
2024-01-26T00:40:59.150Z,80.50
2024-01-26T00:41:59.377Z,80.77
2024-01-26T00:42:59.395Z,80.66
2024-01-26T00:43:59.217Z,80.57
2024-01-26T00:44:59.282Z,80.80
2024-01-26T00:45:59.143Z,81.01
2024-01-26T00:46:59.099Z,81.21
2024-01-26T00:47:59.416Z,81.21
2024-01-26T00:48:59.275Z,81.30
2024-01-26T00:49:59.217Z,81.41
2024-01-26T00:50:59.549Z,81.51
2024-01-26T00:51:59.068Z,81.51
2024-01-26T00:52:59.036Z,81.51
2024-01-26T00:53:59.067Z,81.51
2024-01-26T00:54:59.118Z,82.01
2024-01-26T00:55:59.050Z,81.91
2024-01-26T00:56:59.166Z,82.01
2024-01-26T00:57:59.021Z,82.21
2024-01-26T00:58:58.984Z,82.42
2024-01-26T00:59:59.508Z,82.31
2024-01-26T01:00:59.039Z,82.42
2024-01-26T01:01:59.174Z,82.62
2024-01-26T01:02:59.033Z,82.62
2024-01-26T01:03:58.908Z,82.58
2024-01-26T01:04:59.009Z,82.58
2024-01-26T01:05:58.997Z,82.48
2024-01-26T01:06:59.019Z,82.48
2024-01-26T01:07:58.931Z,82.48
2024-01-26T01:08:59.045Z,82.58
2024-01-26T01:09:58.967Z,82.48
2024-01-26T01:10:58.915Z,82.48
2024-01-26T01:11:58.902Z,82.48
2024-01-26T01:12:58.848Z,82.58
2024-01-26T01:13:58.865Z,82.58
2024-01-26T01:14:59.214Z,82.68
2024-01-26T01:15:58.815Z,82.58
2024-01-26T01:16:58.794Z,82.68
2024-01-26T01:17:58.810Z,82.58
2024-01-26T01:18:58.974Z,82.58
2024-01-26T01:19:58.709Z,82.58
2024-01-26T01:20:58.941Z,82.68
2024-01-26T01:21:58.704Z,82.68
2024-01-26T01:22:58.738Z,82.68
2024-01-26T01:23:58.765Z,82.88
2024-01-26T01:24:58.646Z,82.88
2024-01-26T01:25:58.688Z,82.78
2024-01-26T01:26:58.893Z,82.58
2024-01-26T01:27:58.654Z,82.78
2024-01-26T01:28:58.668Z,82.88
2024-01-26T01:29:58.658Z,82.78
2024-01-26T01:30:58.582Z,82.64
2024-01-26T01:31:58.620Z,82.64
2024-01-26T01:32:58.754Z,82.74
2024-01-26T01:33:58.790Z,82.74
2024-01-26T01:34:58.598Z,82.54
2024-01-26T01:35:58.885Z,82.54
2024-01-26T01:36:58.599Z,82.64
2024-01-26T01:37:58.532Z,82.74
2024-01-26T01:38:58.567Z,82.74
2024-01-26T01:39:58.628Z,82.84
2024-01-26T01:40:58.643Z,82.94
2024-01-26T01:41:58.928Z,83.04
2024-01-26T01:42:58.557Z,83.14
2024-01-26T01:43:58.450Z,83.25
2024-01-26T01:44:58.460Z,83.25
2024-01-26T01:45:58.555Z,83.45
2024-01-26T01:46:58.489Z,83.59
2024-01-26T01:47:58.990Z,83.79
2024-01-26T01:48:58.535Z,83.89
2024-01-26T01:49:58.426Z,84.19
2024-01-26T01:50:59.074Z,84.19
2024-01-26T01:51:58.513Z,84.29
2024-01-26T01:52:58.611Z,84.49
2024-01-26T01:53:58.552Z,84.49
2024-01-26T01:54:58.746Z,84.59
2024-01-26T01:55:58.350Z,84.29
2024-01-26T01:56:58.364Z,84.45
2024-01-26T01:57:58.333Z,84.25
2024-01-26T01:58:58.367Z,84.25
2024-01-26T01:59:58.530Z,84.55
2024-01-26T02:00:58.362Z,84.25
2024-01-26T02:01:58.311Z,84.05
2024-01-26T02:02:58.358Z,83.95
2024-01-26T02:03:58.493Z,84.15
2024-01-26T02:04:58.327Z,84.35
2024-01-26T02:05:58.512Z,84.55
2024-01-26T02:06:58.193Z,84.45
2024-01-26T02:07:58.217Z,84.59
2024-01-26T02:08:58.422Z,84.59
2024-01-26T02:09:58.312Z,84.69
2024-01-26T02:10:58.328Z,84.59
2024-01-26T02:11:58.447Z,84.45
2024-01-26T02:12:58.108Z,84.45
2024-01-26T02:13:58.144Z,84.25
2024-01-26T02:14:58.177Z,84.05
2024-01-26T02:15:58.410Z,83.84
2024-01-26T02:16:58.269Z,84.05
2024-01-26T02:17:58.292Z,83.75
2024-01-26T02:18:58.230Z,83.75
2024-01-26T02:19:58.092Z,83.95
2024-01-26T02:20:58.112Z,83.84
2024-01-26T02:21:58.405Z,83.54
2024-01-26T02:22:58.070Z,83.65
2024-01-26T02:23:58.035Z,83.65
2024-01-26T02:24:58.020Z,83.14
2024-01-26T02:25:58.014Z,83.34
2024-01-26T02:26:57.998Z,82.84
2024-01-26T02:27:58.216Z,82.54
2024-01-26T02:28:57.972Z,82.54
2024-01-26T02:29:58.022Z,82.54
2024-01-26T02:30:58.013Z,82.64
2024-01-26T02:31:57.919Z,82.64
2024-01-26T02:32:58.041Z,82.54
2024-01-26T02:33:58.063Z,82.58
2024-01-26T02:34:57.989Z,82.68
2024-01-26T02:35:58.044Z,82.78
2024-01-26T02:36:57.850Z,82.88
2024-01-26T02:37:57.864Z,82.68
2024-01-26T02:38:57.879Z,82.98
2024-01-26T02:39:57.872Z,83.08
2024-01-26T02:40:57.866Z,82.78
2024-01-26T02:41:58.093Z,82.88
2024-01-26T02:42:57.793Z,83.08
2024-01-26T02:43:57.830Z,82.98
2024-01-26T02:44:57.988Z,82.68
2024-01-26T02:45:57.858Z,82.58
2024-01-26T02:46:57.785Z,82.88
2024-01-26T02:47:58.245Z,82.84
2024-01-26T02:48:57.892Z,82.74
2024-01-26T02:49:57.750Z,82.44
2024-01-26T02:50:58.509Z,81.87
2024-01-26T02:51:57.683Z,82.18
2024-01-26T02:52:57.701Z,82.38
2024-01-26T02:53:57.842Z,82.18
2024-01-26T02:54:57.771Z,81.98
2024-01-26T02:55:57.664Z,82.28
2024-01-26T02:56:57.735Z,81.87
2024-01-26T02:57:57.620Z,81.77
2024-01-26T02:58:57.603Z,81.87
2024-01-26T02:59:57.726Z,82.18
2024-01-26T03:00:57.730Z,82.07
2024-01-26T03:01:57.716Z,82.07
2024-01-26T03:02:57.630Z,82.04
2024-01-26T03:03:57.662Z,81.84
2024-01-26T03:04:57.657Z,81.63
2024-01-26T03:05:57.618Z,81.84
2024-01-26T03:06:57.849Z,82.04
2024-01-26T03:07:57.564Z,82.14
2024-01-26T03:08:57.722Z,82.04
2024-01-26T03:09:57.476Z,81.84
2024-01-26T03:10:57.568Z,82.04
2024-01-26T03:11:57.640Z,82.04
2024-01-26T03:12:57.497Z,82.04
2024-01-26T03:13:57.498Z,82.34
2024-01-26T03:14:57.645Z,82.04
2024-01-26T03:15:57.418Z,82.24
2024-01-26T03:16:57.418Z,82.14
2024-01-26T03:17:57.529Z,82.24
2024-01-26T03:18:57.853Z,82.14
2024-01-26T03:19:57.534Z,82.34
2024-01-26T03:20:57.539Z,82.24
2024-01-26T03:21:57.435Z,82.44
2024-01-26T03:22:57.369Z,82.14
2024-01-26T03:23:57.414Z,82.24
2024-01-26T03:24:57.381Z,82.34
2024-01-26T03:25:57.373Z,82.54
2024-01-26T03:26:57.402Z,82.54
2024-01-26T03:27:57.264Z,82.44
2024-01-26T03:28:57.594Z,82.54
2024-01-26T03:29:57.417Z,82.94
2024-01-26T03:30:57.291Z,82.84
2024-01-26T03:31:57.305Z,82.84
2024-01-26T03:32:57.410Z,82.74
2024-01-26T03:33:57.497Z,82.64
2024-01-26T03:34:57.480Z,82.84
2024-01-26T03:35:57.386Z,83.04
2024-01-26T03:36:57.370Z,83.25
2024-01-26T03:37:57.242Z,84.05
2024-01-26T03:38:57.525Z,83.95
2024-01-26T03:39:57.255Z,83.99
2024-01-26T03:40:57.199Z,84.19
2024-01-26T03:41:57.241Z,84.39
2024-01-26T03:42:57.293Z,84.69
2024-01-26T03:43:57.181Z,85.10
2024-01-26T03:44:57.255Z,85.80
2024-01-26T03:45:57.223Z,86.10
2024-01-26T03:46:57.118Z,86.21
2024-01-26T03:47:57.158Z,85.70
2024-01-26T03:48:57.254Z,85.80
2024-01-26T03:49:57.159Z,85.90
2024-01-26T03:50:57.150Z,86.30
2024-01-26T03:51:57.041Z,86.41
2024-01-26T03:52:57.252Z,86.41
2024-01-26T03:53:57.047Z,86.30
2024-01-26T03:54:57.158Z,86.91
2024-01-26T03:55:57.077Z,87.11
2024-01-26T03:56:57.105Z,87.21
2024-01-26T03:57:56.977Z,87.31
2024-01-26T03:58:57.183Z,87.41
2024-01-26T03:59:57.001Z,87.62
2024-01-26T04:00:57.207Z,87.62
2024-01-26T04:01:56.971Z,86.91
2024-01-26T04:02:57.086Z,87.01
2024-01-26T04:03:56.927Z,87.62
2024-01-26T04:04:56.917Z,87.51
2024-01-26T04:05:57.891Z,87.71
2024-01-26T04:06:56.993Z,88.12
2024-01-26T04:07:56.937Z,87.82
2024-01-26T04:08:57.000Z,87.82
2024-01-26T04:09:56.860Z,88.32
2024-01-26T04:10:56.883Z,88.02
2024-01-26T04:11:56.987Z,88.42
2024-01-26T04:12:56.950Z,88.22
2024-01-26T04:13:56.870Z,88.22
2024-01-26T04:14:56.902Z,87.92
2024-01-26T04:15:56.776Z,88.02
2024-01-26T04:16:56.789Z,88.42
2024-01-26T04:17:56.990Z,88.62
2024-01-26T04:18:57.126Z,88.52
2024-01-26T04:19:57.631Z,88.52
2024-01-26T04:20:56.777Z,88.52
2024-01-26T04:21:56.714Z,88.62
2024-01-26T04:22:57.013Z,88.92
2024-01-26T04:23:56.674Z,88.92
2024-01-26T04:24:56.636Z,88.62
2024-01-26T04:25:56.674Z,88.72
2024-01-26T04:26:56.681Z,88.82
2024-01-26T04:27:56.631Z,89.12
2024-01-26T04:28:56.667Z,88.92
2024-01-26T04:29:56.607Z,89.12
2024-01-26T04:30:56.582Z,89.03
2024-01-26T04:31:56.580Z,89.03
2024-01-26T04:32:56.761Z,89.23
2024-01-26T04:33:57.559Z,88.82
2024-01-26T04:34:56.586Z,88.82
2024-01-26T04:35:56.558Z,88.42
2024-01-26T04:36:56.652Z,88.32
2024-01-26T04:37:56.457Z,88.22
2024-01-26T04:38:56.928Z,88.72
2024-01-26T04:39:56.624Z,88.52
2024-01-26T04:40:56.524Z,88.32
2024-01-26T04:41:56.568Z,88.52
2024-01-26T04:42:56.455Z,88.46
2024-01-26T04:43:56.545Z,88.46
2024-01-26T04:44:56.795Z,88.36
2024-01-26T04:45:56.468Z,88.56
2024-01-26T04:46:56.515Z,88.56
2024-01-26T04:47:56.460Z,88.72
2024-01-26T04:48:56.632Z,88.72
2024-01-26T04:49:56.503Z,88.92
2024-01-26T04:50:56.346Z,89.03
2024-01-26T04:51:56.346Z,88.92
2024-01-26T04:52:56.766Z,88.82
2024-01-26T04:53:56.351Z,88.22
2024-01-26T04:54:56.365Z,88.12
2024-01-26T04:55:56.423Z,88.22
2024-01-26T04:56:56.324Z,88.52
2024-01-26T04:57:56.282Z,88.72
2024-01-26T04:58:56.716Z,88.82
2024-01-26T04:59:56.292Z,88.62
2024-01-26T05:00:56.318Z,88.42
2024-01-26T05:01:56.252Z,88.12
2024-01-26T05:02:56.367Z,88.02
2024-01-26T05:03:56.377Z,88.22
2024-01-26T05:04:56.232Z,88.32
2024-01-26T05:05:56.340Z,88.32
2024-01-26T05:06:56.302Z,88.42
2024-01-26T05:07:56.198Z,88.62
2024-01-26T05:08:56.279Z,88.62
2024-01-26T05:09:56.116Z,88.82
2024-01-26T05:10:56.136Z,88.82
2024-01-26T05:11:56.171Z,88.82
2024-01-26T05:12:56.119Z,88.42
2024-01-26T05:13:56.331Z,87.82
2024-01-26T05:14:56.271Z,87.62
2024-01-26T05:15:56.055Z,87.92
2024-01-26T05:16:56.095Z,88.22
2024-01-26T05:17:56.158Z,88.26
2024-01-26T05:18:56.300Z,88.06
2024-01-26T05:19:56.111Z,88.16
2024-01-26T05:20:56.006Z,88.62
2024-01-26T05:21:56.130Z,88.32
2024-01-26T05:22:56.008Z,88.42
2024-01-26T05:23:56.031Z,88.32
2024-01-26T05:24:56.017Z,88.02
2024-01-26T05:25:55.925Z,88.22
2024-01-26T05:26:56.061Z,88.02
2024-01-26T05:27:56.037Z,88.12
2024-01-26T05:28:56.288Z,87.71
2024-01-26T05:29:55.999Z,87.82
2024-01-26T05:30:56.064Z,87.62
2024-01-26T05:31:55.991Z,87.71
2024-01-26T05:32:56.005Z,87.82
2024-01-26T05:33:56.164Z,87.92
2024-01-26T05:34:56.198Z,87.82
2024-01-26T05:35:55.911Z,87.71
2024-01-26T05:36:55.897Z,87.82
2024-01-26T05:37:55.945Z,87.51
2024-01-26T05:38:55.819Z,87.41
2024-01-26T05:39:58.131Z,87.41
2024-01-26T05:40:56.551Z,87.21
2024-01-26T05:41:55.841Z,87.62
2024-01-26T05:42:55.837Z,87.41
2024-01-26T05:43:55.800Z,87.31
2024-01-26T05:44:55.908Z,87.21
2024-01-26T05:45:55.961Z,87.25
2024-01-26T05:46:55.700Z,87.71
2024-01-26T05:47:56.132Z,88.02
2024-01-26T05:48:55.872Z,87.92
2024-01-26T05:49:55.749Z,87.92
2024-01-26T05:50:55.766Z,87.62
2024-01-26T05:51:55.794Z,87.51
2024-01-26T05:52:55.632Z,87.62
2024-01-26T05:53:55.865Z,87.51
2024-01-26T05:54:55.640Z,87.41
2024-01-26T05:55:55.700Z,87.71
2024-01-26T05:56:55.638Z,87.51
2024-01-26T05:57:55.685Z,87.71
2024-01-26T05:58:55.595Z,87.92
2024-01-26T05:59:55.705Z,87.82
2024-01-26T06:00:55.600Z,87.71
2024-01-26T06:01:55.657Z,87.82
2024-01-26T06:02:55.608Z,88.12
2024-01-26T06:03:55.646Z,88.42
2024-01-26T06:04:55.563Z,88.52
2024-01-26T06:05:55.556Z,88.82
2024-01-26T06:06:55.597Z,88.66
2024-01-26T06:07:55.482Z,88.86
2024-01-26T06:08:55.571Z,88.56
2024-01-26T06:09:55.573Z,88.06
2024-01-26T06:10:55.442Z,87.76
2024-01-26T06:11:55.437Z,87.76
2024-01-26T06:12:55.482Z,87.90
2024-01-26T06:13:55.500Z,88.30
2024-01-26T06:14:55.505Z,88.90
2024-01-26T06:15:55.412Z,89.41
2024-01-26T06:16:55.443Z,89.21
2024-01-26T06:17:55.511Z,89.71
2024-01-26T06:18:55.591Z,89.91
2024-01-26T06:19:55.401Z,90.01
2024-01-26T06:20:55.446Z,89.81
2024-01-26T06:21:55.450Z,89.51
2024-01-26T06:22:55.489Z,89.21
2024-01-26T06:23:55.496Z,89.01
2024-01-26T06:24:55.394Z,89.21
2024-01-26T06:25:55.412Z,89.71
2024-01-26T06:26:55.434Z,89.71
2024-01-26T06:27:55.251Z,89.61
2024-01-26T06:28:55.244Z,89.51
2024-01-26T06:29:55.270Z,89.41
2024-01-26T06:30:55.369Z,89.71
2024-01-26T06:31:55.216Z,89.71
2024-01-26T06:32:55.373Z,89.71
2024-01-26T06:33:55.512Z,89.61
2024-01-26T06:34:55.282Z,89.51
2024-01-26T06:35:55.268Z,89.41
2024-01-26T06:36:55.169Z,89.71
2024-01-26T06:37:55.353Z,90.42
2024-01-26T06:38:55.207Z,90.22
2024-01-26T06:39:55.188Z,90.11
2024-01-26T06:40:55.180Z,90.22
2024-01-26T06:41:55.168Z,90.32
2024-01-26T06:42:55.100Z,90.32
2024-01-26T06:43:55.189Z,90.42
2024-01-26T06:44:55.294Z,90.22
2024-01-26T06:45:55.098Z,89.91
2024-01-26T06:46:55.059Z,89.91
2024-01-26T06:47:55.192Z,90.07
2024-01-26T06:48:55.314Z,89.71
2024-01-26T06:49:55.081Z,89.71
2024-01-26T06:50:55.054Z,89.91
2024-01-26T06:51:55.044Z,89.81
2024-01-26T06:52:55.046Z,90.11
2024-01-26T06:53:55.041Z,90.11
2024-01-26T06:54:55.063Z,90.11
2024-01-26T06:55:54.955Z,90.52
2024-01-26T06:56:55.046Z,90.92
2024-01-26T06:57:55.184Z,90.82
2024-01-26T06:58:54.972Z,90.72
2024-01-26T06:59:54.989Z,90.72
2024-01-26T07:00:54.921Z,90.82
2024-01-26T07:01:54.955Z,90.82
2024-01-26T07:02:55.003Z,90.78
2024-01-26T07:03:55.019Z,90.78
2024-01-26T07:04:54.911Z,90.22
2024-01-26T07:05:55.031Z,90.11
2024-01-26T07:06:54.867Z,90.01
2024-01-26T07:07:54.921Z,89.91
2024-01-26T07:08:54.957Z,90.11
2024-01-26T07:09:54.850Z,90.62
2024-01-26T07:10:54.957Z,90.82
2024-01-26T07:11:54.915Z,90.52
2024-01-26T07:12:54.774Z,90.06
2024-01-26T07:13:54.761Z,90.16
2024-01-26T07:14:55.501Z,90.06
2024-01-26T07:15:54.786Z,90.26
2024-01-26T07:16:54.794Z,89.95
2024-01-26T07:17:54.748Z,90.26
2024-01-26T07:18:54.867Z,90.66
2024-01-26T07:19:54.943Z,90.77
2024-01-26T07:20:54.747Z,90.97
2024-01-26T07:21:54.721Z,90.97
2024-01-26T07:22:54.724Z,90.66
2024-01-26T07:23:54.649Z,90.77
2024-01-26T07:24:54.685Z,90.77
2024-01-26T07:25:54.640Z,90.56
2024-01-26T07:26:54.758Z,90.66
2024-01-26T07:27:54.635Z,90.86
2024-01-26T07:28:54.676Z,90.56
2024-01-26T07:29:54.687Z,90.56
2024-01-26T07:30:54.565Z,90.56
2024-01-26T07:31:54.578Z,90.62
2024-01-26T07:32:54.648Z,90.72
2024-01-26T07:33:54.641Z,90.82
2024-01-26T07:34:54.540Z,90.72
2024-01-26T07:35:54.546Z,90.52
2024-01-26T07:36:54.492Z,90.46
2024-01-26T07:37:54.502Z,90.46
2024-01-26T07:38:54.541Z,90.56
2024-01-26T07:39:54.522Z,90.77
2024-01-26T07:40:54.517Z,90.82
2024-01-26T07:41:54.617Z,90.92
2024-01-26T07:42:54.393Z,90.92
2024-01-26T07:43:54.682Z,91.02
2024-01-26T07:44:54.478Z,91.02
2024-01-26T07:45:54.460Z,90.92
2024-01-26T07:46:54.369Z,90.92
2024-01-26T07:47:54.529Z,90.82
2024-01-26T07:48:54.458Z,90.72
2024-01-26T07:49:54.408Z,90.52
2024-01-26T07:50:54.441Z,90.22
2024-01-26T07:51:54.386Z,90.11
2024-01-26T07:52:54.426Z,89.91
2024-01-26T07:53:54.386Z,90.22
2024-01-26T07:54:54.320Z,90.22
2024-01-26T07:55:54.321Z,90.42
2024-01-26T07:56:54.350Z,90.52
2024-01-26T07:57:54.331Z,90.72
2024-01-26T07:58:54.235Z,90.62
2024-01-26T07:59:54.452Z,90.62
2024-01-26T08:00:55.198Z,90.62
2024-01-26T08:01:54.238Z,90.62
2024-01-26T08:02:54.341Z,90.48
2024-01-26T08:03:54.687Z,90.37
2024-01-26T08:04:54.172Z,90.17
2024-01-26T08:05:54.297Z,90.17
2024-01-26T08:06:54.694Z,90.22
2024-01-26T08:07:54.304Z,90.32
2024-01-26T08:08:54.214Z,90.32
2024-01-26T08:09:54.209Z,90.52
2024-01-26T08:10:54.114Z,90.28
2024-01-26T08:11:55.205Z,90.48
2024-01-26T08:12:54.264Z,90.17
2024-01-26T08:13:54.136Z,90.28
2024-01-26T08:14:54.372Z,90.07
2024-01-26T08:15:54.154Z,89.67
2024-01-26T08:16:54.074Z,89.67
2024-01-26T08:17:54.136Z,89.87
2024-01-26T08:18:54.196Z,89.77
2024-01-26T08:19:54.096Z,89.26
2024-01-26T08:20:54.111Z,89.01
2024-01-26T08:21:54.012Z,89.06
2024-01-26T08:22:54.006Z,89.26
2024-01-26T08:23:54.043Z,89.26
2024-01-26T08:24:54.026Z,88.86
2024-01-26T08:25:54.038Z,88.76
2024-01-26T08:26:54.102Z,88.66
2024-01-26T08:27:54.052Z,88.36
2024-01-26T08:28:54.053Z,88.26
2024-01-26T08:29:54.024Z,88.40
2024-01-26T08:30:53.970Z,88.76
2024-01-26T08:31:53.996Z,88.76
2024-01-26T08:32:54.110Z,88.66
2024-01-26T08:33:54.131Z,89.11
2024-01-26T08:34:54.273Z,89.26
2024-01-26T08:35:54.085Z,89.37
2024-01-26T08:36:53.968Z,88.96
2024-01-26T08:37:53.913Z,88.56
2024-01-26T08:38:53.964Z,88.36
2024-01-26T08:39:53.865Z,88.36
2024-01-26T08:40:53.831Z,88.46
2024-01-26T08:41:53.842Z,88.26
2024-01-26T08:42:53.844Z,87.55
2024-01-26T08:43:53.936Z,87.45
2024-01-26T08:44:53.895Z,87.25
2024-01-26T08:45:53.760Z,87.65
2024-01-26T08:46:55.451Z,87.76
2024-01-26T08:47:53.862Z,87.35
2024-01-26T08:48:53.921Z,86.99
2024-01-26T08:49:53.870Z,86.89
2024-01-26T08:50:53.806Z,86.89
2024-01-26T08:51:53.701Z,87.19
2024-01-26T08:52:53.938Z,87.90
2024-01-26T08:53:53.736Z,88.30
2024-01-26T08:54:53.732Z,88.10
2024-01-26T08:55:53.733Z,88.10
2024-01-26T08:56:53.802Z,88.00
2024-01-26T08:57:53.734Z,87.90
2024-01-26T08:58:53.630Z,88.10
2024-01-26T08:59:53.689Z,87.90
2024-01-26T09:00:53.694Z,87.19
2024-01-26T09:01:53.677Z,86.99
2024-01-26T09:02:53.692Z,86.89
2024-01-26T09:03:53.740Z,87.19
2024-01-26T09:04:53.570Z,87.19
2024-01-26T09:05:53.609Z,87.29
2024-01-26T09:07:00.189Z,87.29
2024-01-26T09:07:53.671Z,87.09
2024-01-26T09:08:53.669Z,87.19
2024-01-26T09:09:53.525Z,87.19
2024-01-26T09:10:53.531Z,87.19
2024-01-26T09:11:53.708Z,87.49
2024-01-26T09:12:53.518Z,87.70
2024-01-26T09:13:53.538Z,86.99
2024-01-26T09:14:53.667Z,86.79
2024-01-26T09:15:53.545Z,86.79
2024-01-26T09:16:53.463Z,86.69
2024-01-26T09:17:53.497Z,86.49
2024-01-26T09:18:53.598Z,86.38
2024-01-26T09:19:53.568Z,86.69
2024-01-26T09:20:53.647Z,87.29
2024-01-26T09:21:53.398Z,87.29
2024-01-26T09:22:53.397Z,87.45
2024-01-26T09:23:53.546Z,87.15
2024-01-26T09:24:53.540Z,86.65
2024-01-26T09:25:54.951Z,86.44
2024-01-26T09:26:53.368Z,86.15
2024-01-26T09:27:53.394Z,86.04
2024-01-26T09:28:53.388Z,86.35
2024-01-26T09:29:53.330Z,86.55
2024-01-26T09:30:53.327Z,86.44
2024-01-26T09:31:53.253Z,86.15
2024-01-26T09:32:53.370Z,86.04
2024-01-26T09:33:53.420Z,85.74
2024-01-26T09:34:53.443Z,85.44
2024-01-26T09:35:53.234Z,85.44
2024-01-26T09:36:55.622Z,85.94
2024-01-26T09:37:53.180Z,85.34
2024-01-26T09:38:53.194Z,85.44
2024-01-26T09:39:53.201Z,85.74
2024-01-26T09:40:53.191Z,85.84
2024-01-26T09:41:53.308Z,85.44
2024-01-26T09:42:53.222Z,85.44
2024-01-26T09:43:53.136Z,85.44
2024-01-26T09:44:53.136Z,85.44
2024-01-26T09:45:53.241Z,85.54
2024-01-26T09:46:53.105Z,86.15
2024-01-26T09:47:53.299Z,85.84
2024-01-26T09:48:53.214Z,86.44
2024-01-26T09:49:53.423Z,86.65
2024-01-26T09:50:53.183Z,86.35
2024-01-26T09:51:53.167Z,86.15
2024-01-26T09:52:53.083Z,86.35
2024-01-26T09:53:53.200Z,85.80
2024-01-26T09:54:53.082Z,85.60
2024-01-26T09:55:52.983Z,85.80
2024-01-26T09:56:53.625Z,85.50
2024-01-26T09:57:53.207Z,85.34
2024-01-26T09:58:52.977Z,85.54
2024-01-26T09:59:52.986Z,85.54
2024-01-26T10:00:53.061Z,85.44
2024-01-26T10:01:52.926Z,85.64
2024-01-26T10:02:53.076Z,85.80
2024-01-26T10:03:53.064Z,85.70
2024-01-26T10:04:52.901Z,85.20
2024-01-26T10:05:52.971Z,85.30
2024-01-26T10:06:52.989Z,85.60
2024-01-26T10:07:52.923Z,85.20
2024-01-26T10:08:52.951Z,85.30
2024-01-26T10:09:55.550Z,85.20
2024-01-26T10:10:52.851Z,85.30
2024-01-26T10:11:52.888Z,85.80
2024-01-26T10:12:53.063Z,85.50
2024-01-26T10:13:52.912Z,84.89
2024-01-26T10:14:52.862Z,85.00
2024-01-26T10:15:52.911Z,85.40
2024-01-26T10:16:52.978Z,85.40
2024-01-26T10:17:53.066Z,85.05
2024-01-26T10:18:52.992Z,85.25
2024-01-26T10:19:53.389Z,85.76
2024-01-26T10:20:52.942Z,85.05
2024-01-26T10:21:52.963Z,84.75
2024-01-26T10:22:52.934Z,84.95
2024-01-26T10:23:52.789Z,85.05
2024-01-26T10:24:52.851Z,85.05
2024-01-26T10:25:54.389Z,84.45
2024-01-26T10:26:52.949Z,84.65
2024-01-26T10:27:53.172Z,85.16
2024-01-26T10:28:53.236Z,85.25
2024-01-26T10:29:54.845Z,85.16
2024-01-26T10:30:52.890Z,84.95
2024-01-26T10:31:53.874Z,84.55
2024-01-26T10:32:53.730Z,84.65
2024-01-26T10:33:52.691Z,84.11
2024-01-26T10:34:52.893Z,83.91
2024-01-26T10:35:53.288Z,83.81
2024-01-26T10:36:53.149Z,84.21
2024-01-26T10:37:52.606Z,84.01
2024-01-26T10:38:53.800Z,84.41
2024-01-26T10:39:53.166Z,84.91
2024-01-26T10:40:52.757Z,84.51
2024-01-26T10:41:52.848Z,84.31
2024-01-26T10:42:52.977Z,84.01
2024-01-26T10:43:52.498Z,84.41
2024-01-26T10:44:52.636Z,85.11
2024-01-26T10:45:52.487Z,84.51
2024-01-26T10:46:52.491Z,84.51
2024-01-26T10:47:52.754Z,84.77
2024-01-26T10:48:53.248Z,84.57
2024-01-26T10:49:52.755Z,84.67
2024-01-26T10:50:52.612Z,84.27
2024-01-26T10:51:52.478Z,83.76
2024-01-26T10:52:52.672Z,83.57
2024-01-26T10:53:52.636Z,83.57
2024-01-26T10:54:53.764Z,84.17
2024-01-26T10:55:52.657Z,83.76
2024-01-26T10:56:52.525Z,83.76
2024-01-26T10:57:52.493Z,84.07
2024-01-26T10:58:52.473Z,83.17
2024-01-26T10:59:52.494Z,83.76
2024-01-26T11:00:52.718Z,83.26
2024-01-26T11:01:52.617Z,82.82
2024-01-26T11:02:52.611Z,82.32
2024-01-26T11:03:52.348Z,82.82
2024-01-26T11:04:52.409Z,82.92
2024-01-26T11:05:52.843Z,82.22
2024-01-26T11:06:52.450Z,82.22
2024-01-26T11:07:53.345Z,82.82
2024-01-26T11:08:56.242Z,83.23
2024-01-26T11:09:53.073Z,82.98
2024-01-26T11:10:52.492Z,81.48
2024-01-26T11:11:52.618Z,80.88
2024-01-26T11:12:52.256Z,81.18
2024-01-26T11:13:52.362Z,81.88
2024-01-26T11:14:52.263Z,81.48
2024-01-26T11:15:52.723Z,80.88
2024-01-26T11:16:52.590Z,80.33
2024-01-26T11:17:52.460Z,79.83
2024-01-26T11:18:52.246Z,79.77
2024-01-26T11:19:52.232Z,80.27
2024-01-26T11:20:52.114Z,80.68
2024-01-26T11:21:52.227Z,80.68
2024-01-26T11:22:52.142Z,81.07
2024-01-26T11:23:52.440Z,81.38
2024-01-26T11:24:52.030Z,81.27
2024-01-26T11:25:54.654Z,81.07
2024-01-26T11:26:52.091Z,80.88
2024-01-26T11:27:52.969Z,80.68
2024-01-26T11:29:02.848Z,81.38
2024-01-26T11:29:52.944Z,81.07
2024-01-26T11:30:51.992Z,81.48
2024-01-26T11:31:53.706Z,81.68
2024-01-26T11:32:52.194Z,81.34
2024-01-26T11:33:52.160Z,80.83
2024-01-26T11:34:52.048Z,80.94
2024-01-26T11:35:52.219Z,81.54
2024-01-26T11:36:52.025Z,81.94
2024-01-26T11:37:52.412Z,82.04
2024-01-26T11:38:52.056Z,81.84
2024-01-26T11:39:51.940Z,81.84
2024-01-26T11:40:51.946Z,82.24
2024-01-26T11:41:52.163Z,82.34
2024-01-26T11:42:51.969Z,82.31
2024-01-26T11:43:51.974Z,81.70
2024-01-26T11:44:52.357Z,81.10
2024-01-26T11:45:51.986Z,80.70
2024-01-26T11:46:51.788Z,81.20
2024-01-26T11:47:52.281Z,80.76
2024-01-26T11:48:51.935Z,80.16
2024-01-26T11:49:51.959Z,80.40
2024-01-26T11:50:51.927Z,80.30
2024-01-26T11:51:51.813Z,80.19
2024-01-26T11:52:52.624Z,80.50
2024-01-26T11:53:52.175Z,80.40
2024-01-26T11:54:51.818Z,80.96
2024-01-26T11:55:51.950Z,80.66
2024-01-26T11:56:52.473Z,81.26
2024-01-26T11:57:51.863Z,80.86
2024-01-26T11:58:51.850Z,81.23
2024-01-26T11:59:51.893Z,81.12
2024-01-26T12:00:52.413Z,80.02
2024-01-26T12:01:51.786Z,79.32
2024-01-26T12:02:51.736Z,78.61
2024-01-26T12:03:51.895Z,78.52
2024-01-26T12:04:51.752Z,78.72
2024-01-26T12:05:51.959Z,78.72
2024-01-26T12:06:51.664Z,79.08
2024-01-26T12:07:51.706Z,79.08
2024-01-26T12:08:51.711Z,78.18
2024-01-26T12:09:51.674Z,78.78
2024-01-26T12:10:51.640Z,78.38
2024-01-26T12:11:51.843Z,78.78
2024-01-26T12:12:51.566Z,78.68
2024-01-26T12:13:51.869Z,78.31
2024-01-26T12:14:51.671Z,78.61
2024-01-26T12:15:51.599Z,79.02
2024-01-26T12:16:51.495Z,79.22
2024-01-26T12:17:51.775Z,79.42
2024-01-26T12:18:51.767Z,79.92
2024-01-26T12:19:51.920Z,79.22
2024-01-26T12:20:51.629Z,79.22
2024-01-26T12:21:51.582Z,79.32
2024-01-26T12:22:51.609Z,79.02
2024-01-26T12:23:51.736Z,79.16
2024-01-26T12:24:51.524Z,79.46
2024-01-26T12:25:51.725Z,79.55
2024-01-26T12:26:51.523Z,79.55
2024-01-26T12:28:17.555Z,79.66
2024-01-26T12:28:51.752Z,79.46
2024-01-26T12:29:52.609Z,79.46
2024-01-26T12:30:51.375Z,79.46
2024-01-26T12:31:52.021Z,79.96
2024-01-26T12:32:52.336Z,80.06
2024-01-26T12:33:51.813Z,79.96
2024-01-26T12:34:51.612Z,79.96
2024-01-26T12:35:51.517Z,79.75
2024-01-26T12:36:51.397Z,79.55
2024-01-26T12:37:51.379Z,79.32
2024-01-26T12:38:51.626Z,79.52
2024-01-26T12:39:51.299Z,79.28
2024-01-26T12:40:51.423Z,79.08
2024-01-26T12:41:51.232Z,79.08
2024-01-26T12:42:51.744Z,79.28
2024-01-26T12:43:51.331Z,79.32
2024-01-26T12:44:52.046Z,79.42
2024-01-26T12:45:51.146Z,79.32
2024-01-26T12:46:51.354Z,79.72
2024-01-26T12:47:51.494Z,80.48
2024-01-26T12:48:51.627Z,79.48
2024-01-26T12:49:51.314Z,79.58
2024-01-26T12:50:51.360Z,79.38
2024-01-26T12:51:51.211Z,79.38
2024-01-26T12:52:51.273Z,80.08